Time;durP1;ratioP1;P1;durP2;ratioP2;P2;SDS_P1;SDS_P2;PMS_P1;PMS_P2;Temp;Humidity;BMP_temperature;BMP_pressure;BME280_temperature;BME280_humidity;BME280_pressure;Samples;Min_cycle;Max_cycle;Signal;HPM_P1;HPM_P2
2022/01/27 00:01:52;;;;;;;74.43;22.03;;;3.40;99.90;;;;;;5073601;28;20173;-76
2022/01/27 00:04:24;;;;;;;70.73;20.83;;;3.40;99.90;;;;;;5072254;28;20173;-76
2022/01/27 00:06:50;;;;;;;62.33;20.00;;;3.40;99.90;;;;;;5072201;28;20188;-76
2022/01/27 00:11:45;;;;;;;72.43;21.17;;;3.40;99.90;;;;;;5073372;28;20224;-77
2022/01/27 00:14:13;;;;;;;65.33;19.73;;;3.40;99.90;;;;;;5072055;28;20176;-77
2022/01/27 00:16:42;;;;;;;62.00;17.77;;;3.40;99.90;;;;;;5071886;28;20683;-77
2022/01/27 00:19:10;;;;;;;63.80;19.27;;;3.40;99.90;;;;;;5071817;28;20180;-77
2022/01/27 00:21:36;;;;;;;61.87;20.30;;;3.40;99.90;;;;;;5071785;28;20200;-77
2022/01/27 00:24:03;;;;;;;59.30;19.33;;;3.40;99.90;;;;;;5071901;28;20550;-77
2022/01/27 00:26:29;;;;;;;69.97;20.57;;;3.40;99.90;;;;;;5071312;28;20192;-76
2022/01/27 00:28:55;;;;;;;75.73;21.40;;;3.40;99.90;;;;;;5071956;28;20518;-77
2022/01/27 00:31:22;;;;;;;65.77;19.13;;;3.40;99.90;;;;;;5072722;28;20169;-77
2022/01/27 00:33:50;;;;;;;59.90;20.53;;;3.40;99.90;;;;;;5071705;28;20199;-76
2022/01/27 00:36:15;;;;;;;66.60;20.80;;;3.40;99.90;;;;;;5071453;28;20288;-76
2022/01/27 00:38:41;;;;;;;65.80;20.63;;;3.50;99.90;;;;;;5071615;28;20260;-77
2022/01/27 00:41:07;;;;;;;61.87;20.00;;;3.50;99.90;;;;;;5071356;28;20228;-77
2022/01/27 00:43:33;;;;;;;64.63;20.93;;;3.50;99.90;;;;;;5071620;28;20537;-77
2022/01/27 00:45:58;;;;;;;61.97;20.13;;;3.50;99.90;;;;;;5071187;28;20197;-77
2022/01/27 00:48:24;;;;;;;58.83;17.90;;;3.50;99.90;;;;;;5071139;28;20172;-76
2022/01/27 00:51:00;;;;;;;65.97;20.47;;;3.50;99.90;;;;;;5072759;28;20637;-77
2022/01/27 00:53:42;;;;;;;61.70;21.90;;;3.50;99.90;;;;;;5071268;28;20675;-76
2022/01/27 01:01:25;;;;;;;66.73;22.93;;;3.60;99.90;;;;;;5072022;28;20148;-76
2022/01/27 01:03:55;;;;;;;68.07;21.77;;;3.50;99.90;;;;;;5071283;28;20204;-77
2022/01/27 01:06:34;;;;;;;71.87;24.43;;;3.60;99.90;;;;;;5070876;28;20276;-77
2022/01/27 01:35:08;;;;;;;68.37;23.30;;;3.60;99.90;;;;;;5072158;28;20172;-76
2022/01/27 01:37:38;;;;;;;68.93;23.13;;;3.60;99.90;;;;;;5070778;28;20565;-77
2022/01/27 01:40:13;;;;;;;72.90;23.17;;;3.60;99.90;;;;;;5070753;28;20183;-77
2022/01/27 01:42:41;;;;;;;72.00;22.77;;;3.60;99.90;;;;;;5070589;28;20271;-76
2022/01/27 01:45:17;;;;;;;64.47;22.43;;;3.60;99.90;;;;;;5070582;28;20578;-77
2022/01/27 01:47:46;;;;;;;65.53;22.10;;;3.60;99.90;;;;;;5070376;28;20186;-77
2022/01/27 01:50:13;;;;;;;67.40;21.37;;;3.60;99.90;;;;;;5070886;28;20184;-76
2022/01/27 01:52:40;;;;;;;62.77;22.17;;;3.60;99.90;;;;;;5070297;28;20197;-76
2022/01/27 01:55:08;;;;;;;65.03;21.57;;;3.60;99.90;;;;;;5070574;28;20271;-76
2022/01/27 01:57:34;;;;;;;61.13;21.43;;;3.60;99.90;;;;;;5070490;28;20174;-76
2022/01/27 02:00:00;;;;;;;68.87;21.37;;;3.60;99.90;;;;;;5070612;28;20169;-76
2022/01/27 02:02:26;;;;;;;59.40;20.13;;;3.60;99.90;;;;;;5070410;28;20196;-76
2022/01/27 02:04:55;;;;;;;62.33;21.23;;;3.60;99.90;;;;;;5070508;28;20719;-76
2022/01/27 02:10:32;;;;;;;58.30;20.20;;;3.60;99.90;;;;;;5072191;28;20183;-76
2022/01/27 02:18:27;;;;;;;55.40;19.83;;;3.70;99.90;;;;;;5034164;28;20192;-75
2022/01/27 02:20:53;;;;;;;54.30;19.63;;;3.70;99.90;;;;;;5053896;28;20717;-76
2022/01/27 02:23:19;;;;;;;59.33;20.27;;;3.70;99.90;;;;;;5053931;28;20215;-76
2022/01/27 02:25:45;;;;;;;54.10;21.27;;;3.60;99.90;;;;;;5053803;28;20197;-76
2022/01/27 02:28:11;;;;;;;60.60;21.17;;;3.70;99.90;;;;;;5071622;28;20184;-76
2022/01/27 02:30:36;;;;;;;60.67;20.17;;;3.70;99.90;;;;;;5074176;28;20183;-75
2022/01/27 02:33:03;;;;;;;63.30;19.93;;;3.70;99.90;;;;;;5073784;28;20201;-76
2022/01/27 02:35:31;;;;;;;62.63;20.80;;;3.70;99.90;;;;;;5074037;28;20190;-76
2022/01/27 02:37:57;;;;;;;56.37;19.57;;;3.70;99.90;;;;;;5073908;28;20267;-76
2022/01/27 02:40:26;;;;;;;55.70;19.53;;;3.70;99.90;;;;;;5073774;28;20202;-76
2022/01/27 02:42:53;;;;;;;52.90;19.53;;;3.70;99.90;;;;;;5073673;28;20281;-76
2022/01/27 02:45:30;;;;;;;57.87;19.27;;;3.70;99.90;;;;;;5073717;28;20264;-76
2022/01/27 02:47:56;;;;;;;54.27;18.93;;;3.70;99.90;;;;;;5073510;28;20235;-76
2022/01/27 02:50:21;;;;;;;47.43;18.47;;;3.70;99.90;;;;;;5073631;28;20173;-76
2022/01/27 02:52:47;;;;;;;46.70;17.10;;;3.70;99.90;;;;;;5073514;28;20192;-76
2022/01/27 02:55:13;;;;;;;58.10;19.37;;;3.70;99.90;;;;;;5073589;28;20291;-76
2022/01/27 02:57:39;;;;;;;48.43;18.70;;;3.70;99.90;;;;;;5073577;28;20172;-77
2022/01/27 03:00:07;;;;;;;53.87;19.73;;;3.80;99.90;;;;;;5073532;28;20176;-76
2022/01/27 03:02:35;;;;;;;54.80;19.00;;;3.80;99.90;;;;;;5072741;28;20725;-76
2022/01/27 03:05:01;;;;;;;49.77;19.17;;;3.70;99.90;;;;;;5073001;28;20260;-76
2022/01/27 03:07:27;;;;;;;52.83;18.57;;;3.70;99.90;;;;;;5073196;28;20185;-75
2022/01/27 03:09:54;;;;;;;52.43;18.63;;;3.80;99.90;;;;;;5073406;28;20710;-76
2022/01/27 03:12:24;;;;;;;51.53;19.10;;;3.80;99.90;;;;;;5073174;28;20258;-76
2022/01/27 03:14:50;;;;;;;53.40;19.77;;;3.80;99.90;;;;;;5073290;28;20256;-76
2022/01/27 03:17:16;;;;;;;51.97;19.57;;;3.80;99.90;;;;;;5073260;28;20689;-76
2022/01/27 03:19:42;;;;;;;52.03;18.40;;;3.80;99.90;;;;;;5074300;28;20692;-77
2022/01/27 03:22:09;;;;;;;47.90;18.23;;;3.70;99.90;;;;;;5072206;28;20185;-77
2022/01/27 03:24:36;;;;;;;51.50;18.90;;;3.80;99.90;;;;;;5072031;28;20190;-77
2022/01/27 03:27:06;;;;;;;51.33;18.70;;;3.80;99.90;;;;;;5073322;28;20216;-77
2022/01/27 03:29:32;;;;;;;49.00;19.60;;;3.80;99.90;;;;;;5072234;28;20187;-77
2022/01/27 03:31:58;;;;;;;51.83;18.33;;;3.80;99.90;;;;;;5072494;28;20202;-77
2022/01/27 03:34:24;;;;;;;50.23;18.83;;;3.80;99.90;;;;;;5072893;28;20198;-77
2022/01/27 03:36:50;;;;;;;49.70;19.03;;;3.80;99.90;;;;;;5072564;28;20287;-77
2022/01/27 03:39:19;;;;;;;52.63;19.97;;;3.80;99.90;;;;;;5072935;28;20628;-77
2022/01/27 03:41:50;;;;;;;49.97;18.63;;;3.70;99.90;;;;;;5072565;28;20175;-77
2022/01/27 03:44:20;;;;;;;45.97;17.80;;;3.80;99.90;;;;;;5072802;28;20211;-77
2022/01/27 03:46:46;;;;;;;49.57;18.80;;;3.80;99.90;;;;;;5072448;28;20254;-77
2022/01/27 03:49:12;;;;;;;49.67;19.47;;;3.80;99.90;;;;;;5072598;28;20583;-77
2022/01/27 03:51:37;;;;;;;53.80;19.73;;;3.80;99.90;;;;;;5072308;28;20896;-77
2022/01/27 03:54:03;;;;;;;48.60;18.00;;;3.80;99.90;;;;;;5072904;28;20169;-77
2022/01/27 03:56:29;;;;;;;47.97;17.63;;;3.80;99.90;;;;;;5072378;28;20672;-77
2022/01/27 03:58:54;;;;;;;47.20;17.77;;;3.80;99.90;;;;;;5072241;28;20221;-77
2022/01/27 04:01:20;;;;;;;49.53;18.20;;;3.80;99.90;;;;;;5072197;28;20177;-76
2022/01/27 04:03:46;;;;;;;53.80;17.13;;;3.80;99.90;;;;;;5072376;28;20185;-76
2022/01/27 04:06:14;;;;;;;49.97;18.07;;;3.80;99.90;;;;;;5072291;28;20201;-77
2022/01/27 04:08:40;;;;;;;55.17;18.43;;;3.80;99.90;;;;;;5072151;28;20201;-76
2022/01/27 04:11:07;;;;;;;55.37;18.17;;;3.90;99.90;;;;;;5072332;28;20185;-76
2022/01/27 04:13:32;;;;;;;50.93;18.47;;;3.80;99.90;;;;;;5072241;28;20196;-77
2022/01/27 04:15:58;;;;;;;47.77;17.87;;;3.90;99.90;;;;;;5071805;28;20221;-77
2022/01/27 04:18:24;;;;;;;45.23;17.30;;;3.80;99.90;;;;;;5072073;28;20174;-77
2022/01/27 04:20:50;;;;;;;45.13;16.40;;;3.80;99.90;;;;;;5071744;28;20188;-77
2022/01/27 04:23:18;;;;;;;49.60;17.37;;;3.80;99.90;;;;;;5072964;28;20189;-77
2022/01/27 04:25:44;;;;;;;46.40;17.23;;;3.80;99.90;;;;;;5071472;28;20196;-77
2022/01/27 04:28:13;;;;;;;47.27;18.13;;;3.90;99.90;;;;;;5071991;28;20254;-77
2022/01/27 04:30:39;;;;;;;45.57;18.23;;;3.90;99.90;;;;;;5071785;28;20230;-77
2022/01/27 04:33:07;;;;;;;44.60;16.10;;;3.80;99.90;;;;;;5071474;28;20201;-77
2022/01/27 04:35:37;;;;;;;52.17;18.73;;;3.90;99.90;;;;;;5070521;28;20246;-77
2022/01/27 04:40:49;;;;;;;44.53;17.03;;;3.90;99.90;;;;;;5072941;28;20177;-77
2022/01/27 04:48:44;;;;;;;42.27;16.97;;;4.00;99.90;;;;;;5064151;28;20188;-77
2022/01/27 04:51:13;;;;;;;47.93;18.50;;;4.00;99.90;;;;;;5071950;28;20184;-77
2022/01/27 04:53:55;;;;;;;41.63;16.73;;;3.90;99.90;;;;;;5070838;28;20783;-77
2022/01/27 04:56:22;;;;;;;44.57;16.80;;;4.00;99.90;;;;;;5071225;28;20275;-77
2022/01/27 04:58:53;;;;;;;42.57;16.63;;;3.90;99.90;;;;;;5071308;28;20197;-77
2022/01/27 05:01:23;;;;;;;43.20;16.83;;;4.00;99.90;;;;;;5071122;28;20238;-77
2022/01/27 05:03:55;;;;;;;47.70;17.70;;;4.00;99.90;;;;;;5070758;28;20180;-77
2022/01/27 05:06:20;;;;;;;48.90;16.50;;;4.00;99.90;;;;;;5070986;28;20288;-77
2022/01/27 05:08:46;;;;;;;52.33;18.37;;;4.00;99.90;;;;;;5071430;28;20275;-77
2022/01/27 05:11:58;;;;;;;44.77;15.73;;;4.00;99.90;;;;;;5070955;28;20214;-77
2022/01/27 05:14:16;;;;;;;46.03;17.17;;;4.00;99.90;;;;;;5061469;28;20319;-77
2022/01/27 05:16:42;;;;;;;40.10;14.90;;;4.00;99.90;;;;;;5070710;28;20199;-77
2022/01/27 05:19:08;;;;;;;44.17;15.90;;;4.00;99.90;;;;;;5071083;28;20537;-76
2022/01/27 05:21:33;;;;;;;42.03;15.87;;;4.10;99.90;;;;;;5070665;28;20330;-77
2022/01/27 05:24:00;;;;;;;43.40;15.47;;;4.10;99.90;;;;;;5070588;28;20200;-77
2022/01/27 05:26:26;;;;;;;47.03;16.90;;;4.10;99.90;;;;;;5070315;28;20189;-77
2022/01/27 05:28:52;;;;;;;47.80;18.23;;;4.10;99.90;;;;;;5070900;28;20195;-77
2022/01/27 05:31:17;;;;;;;42.47;15.37;;;4.10;99.90;;;;;;5070711;28;20180;-78
2022/01/27 05:33:43;;;;;;;42.47;15.77;;;4.10;99.90;;;;;;5070815;28;20194;-77
2022/01/27 05:36:09;;;;;;;43.73;16.10;;;4.10;99.90;;;;;;5070547;28;20295;-77
2022/01/27 05:38:37;;;;;;;48.03;16.03;;;4.20;99.90;;;;;;5070701;28;20177;-76
2022/01/27 05:41:03;;;;;;;46.47;15.57;;;4.20;99.90;;;;;;5070662;28;20170;-77
2022/01/27 05:43:29;;;;;;;41.97;14.97;;;4.20;99.90;;;;;;5070804;28;20173;-76
2022/01/27 05:45:54;;;;;;;45.93;16.80;;;4.20;99.90;;;;;;5069935;28;20285;-76
2022/01/27 05:48:20;;;;;;;42.67;16.33;;;4.20;99.90;;;;;;5070557;28;20185;-77
2022/01/27 05:50:46;;;;;;;43.10;16.17;;;4.20;99.90;;;;;;5070621;28;20177;-76
2022/01/27 05:53:11;;;;;;;47.90;16.80;;;4.20;99.90;;;;;;5070362;28;20210;-76
2022/01/27 05:55:37;;;;;;;42.03;16.27;;;4.20;99.90;;;;;;5070507;28;20193;-76
2022/01/27 05:58:03;;;;;;;41.73;16.00;;;4.20;99.90;;;;;;5070509;28;20197;-76
2022/01/27 06:00:28;;;;;;;44.97;17.07;;;4.30;99.90;;;;;;5070563;28;20654;-76
2022/01/27 06:02:55;;;;;;;48.50;16.00;;;4.30;99.90;;;;;;5070322;28;20182;-77
2022/01/27 06:05:20;;;;;;;46.40;17.43;;;4.30;99.90;;;;;;5070456;28;20223;-76
2022/01/27 06:07:46;;;;;;;47.20;16.43;;;4.30;99.90;;;;;;5070350;28;20208;-77
2022/01/27 06:10:12;;;;;;;44.97;16.90;;;4.30;99.90;;;;;;5070297;28;20276;-77
2022/01/27 06:12:48;;;;;;;44.80;16.37;;;4.30;99.90;;;;;;5070321;28;20641;-77
2022/01/27 06:15:15;;;;;;;47.67;16.03;;;4.30;99.90;;;;;;5070332;28;20195;-77
2022/01/27 06:17:40;;;;;;;43.40;17.53;;;4.30;99.90;;;;;;5070347;28;20176;-76
2022/01/27 06:20:07;;;;;;;48.77;16.43;;;4.30;99.90;;;;;;5070345;28;20173;-76
2022/01/27 06:22:32;;;;;;;42.30;15.47;;;4.30;99.90;;;;;;5069610;28;20190;-76
2022/01/27 06:24:58;;;;;;;42.37;15.00;;;4.30;99.90;;;;;;5070206;28;20178;-77
2022/01/27 06:27:24;;;;;;;39.23;16.03;;;4.40;99.90;;;;;;5070119;28;20186;-76
2022/01/27 06:29:49;;;;;;;41.07;15.17;;;4.40;99.90;;;;;;5070115;28;20200;-76
2022/01/27 06:32:15;;;;;;;44.23;15.83;;;4.40;99.90;;;;;;5070012;28;20213;-77
2022/01/27 06:34:40;;;;;;;41.40;15.97;;;4.40;99.90;;;;;;5070249;28;20260;-76
2022/01/27 06:37:06;;;;;;;40.77;15.03;;;4.40;99.90;;;;;;5069867;28;20198;-76
2022/01/27 06:39:33;;;;;;;41.50;15.70;;;4.30;99.90;;;;;;5070250;28;20175;-76
2022/01/27 06:42:01;;;;;;;44.17;16.17;;;4.30;99.90;;;;;;5069625;28;20178;-77
2022/01/27 06:44:27;;;;;;;36.97;14.70;;;4.30;99.90;;;;;;5070116;28;20208;-76
2022/01/27 06:46:52;;;;;;;39.13;15.87;;;4.30;99.90;;;;;;5069974;28;20193;-76
2022/01/27 06:49:18;;;;;;;38.87;15.83;;;4.30;99.90;;;;;;5070237;28;20523;-75
2022/01/27 06:51:47;;;;;;;39.20;14.43;;;4.30;99.90;;;;;;5069676;28;20621;-76
2022/01/27 06:54:15;;;;;;;42.67;15.07;;;4.30;99.90;;;;;;5070067;28;20179;-75
2022/01/27 06:56:41;;;;;;;44.90;15.60;;;4.30;99.90;;;;;;5069624;28;20242;-76
2022/01/27 06:59:06;;;;;;;38.57;14.97;;;4.30;99.90;;;;;;5072122;28;20181;-76
2022/01/27 07:01:32;;;;;;;36.10;14.23;;;4.30;99.90;;;;;;5073396;28;20173;-76
2022/01/27 07:03:57;;;;;;;38.37;13.77;;;4.30;99.90;;;;;;5073434;28;20672;-75
2022/01/27 07:06:23;;;;;;;38.27;14.83;;;4.30;99.90;;;;;;5073539;28;22234;-76
2022/01/27 07:08:49;;;;;;;35.77;14.70;;;4.30;99.90;;;;;;5073509;28;20659;-76
2022/01/27 07:11:14;;;;;;;34.57;13.50;;;4.30;99.90;;;;;;5073181;28;20179;-77
2022/01/27 07:13:40;;;;;;;35.57;14.20;;;4.30;99.90;;;;;;5073308;28;20252;-76
2022/01/27 07:16:07;;;;;;;33.30;14.00;;;4.30;99.90;;;;;;5073173;28;20670;-77
2022/01/27 07:18:34;;;;;;;36.43;14.00;;;4.30;99.90;;;;;;5053297;28;20542;-77
2022/01/27 07:21:00;;;;;;;36.07;14.77;;;4.30;99.90;;;;;;5052519;28;20649;-76
2022/01/27 07:23:25;;;;;;;37.87;14.80;;;4.30;99.90;;;;;;5053003;28;20205;-77
2022/01/27 07:25:51;;;;;;;30.73;12.43;;;4.30;99.90;;;;;;5053899;28;20194;-77
2022/01/27 07:28:16;;;;;;;30.97;13.40;;;4.30;99.90;;;;;;5073089;28;20177;-77
2022/01/27 07:30:42;;;;;;;36.00;14.10;;;4.30;99.90;;;;;;5073247;28;20180;-74
2022/01/27 07:33:08;;;;;;;33.77;14.40;;;4.30;99.90;;;;;;5072694;28;20547;-74
2022/01/27 07:35:33;;;;;;;33.80;14.30;;;4.40;99.90;;;;;;5072872;28;20202;-75
2022/01/27 07:37:59;;;;;;;30.87;12.83;;;4.40;99.90;;;;;;5072304;28;20201;-75
2022/01/27 07:40:25;;;;;;;30.33;12.67;;;4.40;99.90;;;;;;5071533;28;20177;-72
2022/01/27 07:42:51;;;;;;;29.67;13.80;;;4.40;99.90;;;;;;5072448;28;20190;-73
2022/01/27 07:45:16;;;;;;;32.13;13.80;;;4.40;99.90;;;;;;5072578;28;20686;-73
2022/01/27 07:47:42;;;;;;;36.67;14.67;;;4.40;99.90;;;;;;5072686;28;20641;-75
2022/01/27 07:50:08;;;;;;;33.70;13.57;;;4.50;99.90;;;;;;5072251;28;20189;-74
2022/01/27 07:52:34;;;;;;;35.50;13.87;;;4.50;99.90;;;;;;5072404;28;20192;-75
2022/01/27 07:54:59;;;;;;;33.73;13.03;;;4.50;99.90;;;;;;5071847;28;20178;-74
2022/01/27 07:57:25;;;;;;;30.80;12.90;;;4.50;99.90;;;;;;5072484;28;20179;-74
2022/01/27 07:59:50;;;;;;;32.33;13.57;;;4.50;99.90;;;;;;5073117;28;20177;-75
2022/01/27 08:02:16;;;;;;;29.97;13.57;;;4.50;99.90;;;;;;5071651;28;20247;-74
2022/01/27 08:04:42;;;;;;;27.27;11.93;;;4.50;99.90;;;;;;5071931;28;20267;-75
2022/01/27 08:07:10;;;;;;;29.97;12.73;;;4.50;99.90;;;;;;5073066;28;20607;-79
2022/01/27 08:09:36;;;;;;;31.83;14.53;;;4.50;99.90;;;;;;5073179;28;20225;-78
2022/01/27 08:12:02;;;;;;;29.50;12.70;;;4.50;99.90;;;;;;5073123;28;20567;-78
2022/01/27 08:14:27;;;;;;;29.47;12.77;;;4.50;99.90;;;;;;5069679;28;20174;-78
2022/01/27 08:16:53;;;;;;;29.60;12.90;;;4.50;99.90;;;;;;5071872;28;20243;-78
2022/01/27 08:19:19;;;;;;;26.80;11.87;;;4.50;99.90;;;;;;5071427;28;20223;-78
2022/01/27 08:21:44;;;;;;;26.33;12.23;;;4.50;99.90;;;;;;5071369;28;20271;-79
2022/01/27 08:24:11;;;;;;;29.37;12.30;;;4.50;99.90;;;;;;5071271;28;20211;-78
2022/01/27 08:26:42;;;;;;;30.70;11.93;;;4.50;99.90;;;;;;5070597;28;20199;-78
2022/01/27 08:31:43;;;;;;;27.90;12.20;;;4.50;99.90;;;;;;5072729;28;20267;-79
2022/01/27 08:34:14;;;;;;;24.37;11.17;;;4.50;99.90;;;;;;5071507;28;20716;-76
2022/01/27 08:36:41;;;;;;;26.73;11.73;;;4.50;99.90;;;;;;5070893;28;20192;-76
2022/01/27 08:39:07;;;;;;;21.27;10.03;;;4.50;99.90;;;;;;5071572;28;20166;-76
2022/01/27 08:41:33;;;;;;;19.77;9.40;;;4.50;99.90;;;;;;5071177;28;20710;-76
2022/01/27 08:43:59;;;;;;;24.93;10.73;;;4.60;99.90;;;;;;5072355;28;20174;-76
2022/01/27 08:46:25;;;;;;;25.27;11.57;;;4.60;99.90;;;;;;5071029;28;20679;-76
2022/01/27 08:48:50;;;;;;;20.63;9.27;;;4.60;99.90;;;;;;5071220;28;20178;-76
2022/01/27 08:51:21;;;;;;;23.07;10.60;;;4.60;99.90;;;;;;5071908;28;20200;-76
2022/01/27 08:53:46;;;;;;;21.77;10.67;;;4.60;99.90;;;;;;5071831;28;20209;-76
2022/01/27 08:56:16;;;;;;;21.80;10.33;;;4.70;99.90;;;;;;5072046;28;20184;-76
2022/01/27 08:58:42;;;;;;;23.03;10.37;;;4.60;99.90;;;;;;5071846;28;20165;-76
2022/01/27 09:01:08;;;;;;;23.27;9.83;;;4.70;99.90;;;;;;5071570;28;20541;-76
2022/01/27 09:03:35;;;;;;;18.83;9.80;;;4.70;99.90;;;;;;5071128;28;20539;-76
2022/01/27 09:06:00;;;;;;;23.73;10.23;;;4.70;99.90;;;;;;5070981;28;20674;-76
2022/01/27 09:08:27;;;;;;;21.40;9.70;;;4.80;99.90;;;;;;5070998;28;20173;-76
2022/01/27 09:10:54;;;;;;;21.77;10.30;;;4.80;99.90;;;;;;5070854;28;20173;-76
2022/01/27 09:13:19;;;;;;;22.90;10.10;;;4.80;99.90;;;;;;5070613;28;20603;-76
2022/01/27 09:15:49;;;;;;;21.70;10.17;;;4.80;99.90;;;;;;5070984;28;20276;-76
2022/01/27 09:18:15;;;;;;;22.90;9.47;;;4.80;99.90;;;;;;5070685;28;20511;-76
2022/01/27 09:20:40;;;;;;;19.77;9.30;;;4.80;99.90;;;;;;5069904;28;20175;-76
2022/01/27 09:23:13;;;;;;;20.60;10.43;;;4.90;99.90;;;;;;5070380;28;20195;-76
2022/01/27 09:25:43;;;;;;;17.83;8.63;;;4.90;99.90;;;;;;5070389;28;20285;-76
2022/01/27 09:28:10;;;;;;;21.90;9.43;;;4.90;99.90;;;;;;5070599;28;20697;-76
2022/01/27 09:30:36;;;;;;;23.53;9.77;;;4.90;99.90;;;;;;5070500;28;20173;-76
2022/01/27 09:33:02;;;;;;;21.77;9.93;;;4.90;99.90;;;;;;5070199;28;20286;-76
2022/01/27 09:35:28;;;;;;;20.70;9.37;;;5.00;99.90;;;;;;5070460;28;20219;-76
2022/01/27 09:37:55;;;;;;;19.33;9.43;;;5.00;99.90;;;;;;5069161;28;20257;-76
2022/01/27 09:40:20;;;;;;;19.87;9.03;;;5.10;99.90;;;;;;5069867;28;20666;-76
2022/01/27 09:42:50;;;;;;;19.73;9.80;;;5.10;99.90;;;;;;5071323;28;20177;-76
2022/01/27 09:45:17;;;;;;;18.23;9.73;;;5.10;99.90;;;;;;5069432;28;20224;-76
2022/01/27 09:47:47;;;;;;;19.87;10.43;;;5.10;99.90;;;;;;5070180;28;20172;-76
2022/01/27 09:52:41;;;;;;;19.73;9.63;;;5.10;99.90;;;;;;5071587;28;20225;-76
2022/01/27 09:55:07;;;;;;;21.37;9.53;;;5.20;99.90;;;;;;5070640;28;20690;-76
2022/01/27 09:57:33;;;;;;;19.30;8.97;;;5.20;99.90;;;;;;5070707;28;20653;-76
2022/01/27 09:59:58;;;;;;;20.90;9.70;;;5.20;99.90;;;;;;5070212;28;20169;-77
2022/01/27 10:02:27;;;;;;;23.70;10.20;;;5.20;99.90;;;;;;5070600;28;20652;-76
2022/01/27 10:04:57;;;;;;;23.00;10.30;;;5.30;99.90;;;;;;5070162;28;20190;-76
2022/01/27 10:07:31;;;;;;;20.17;9.13;;;5.30;99.90;;;;;;5066760;28;20596;-76
2022/01/27 10:10:07;;;;;;;17.37;9.03;;;5.30;99.90;;;;;;5070664;28;20604;-78
2022/01/27 10:12:40;;;;;;;20.60;9.30;;;5.40;99.90;;;;;;5069749;28;20201;-78
2022/01/27 10:15:22;;;;;;;21.43;10.10;;;5.40;99.90;;;;;;5070352;28;20165;-79
2022/01/27 10:18:16;;;;;;;18.07;8.87;;;5.50;99.90;;;;;;5070921;28;20252;-79
2022/01/27 10:20:59;;;;;;;21.57;9.80;;;5.50;99.90;;;;;;5070556;28;20194;-78
2022/01/27 10:23:33;;;;;;;19.07;9.67;;;5.50;99.90;;;;;;5066244;28;20183;-79
2022/01/27 10:26:31;;;;;;;20.47;8.73;;;5.60;99.90;;;;;;5063915;28;20557;-78
2022/01/27 10:31:24;;;;;;;18.80;9.60;;;5.60;99.90;;;;;;5071097;28;20168;-78
2022/01/27 10:34:01;;;;;;;19.87;9.40;;;5.70;99.90;;;;;;5073541;28;20576;-78
2022/01/27 10:36:35;;;;;;;18.10;9.20;;;5.70;99.90;;;;;;5073734;28;20562;-78
2022/01/27 10:39:05;;;;;;;18.90;9.37;;;5.60;99.90;;;;;;5074374;28;20266;-78
2022/01/27 10:41:37;;;;;;;20.07;9.20;;;5.60;99.90;;;;;;5064335;28;20174;-78
2022/01/27 10:44:11;;;;;;;17.23;8.83;;;5.70;99.90;;;;;;5073526;28;20172;-78
2022/01/27 10:46:45;;;;;;;17.80;8.73;;;5.70;99.90;;;;;;5073960;28;20240;-78
2022/01/27 10:49:20;;;;;;;15.10;8.20;;;5.70;99.90;;;;;;5074146;28;20179;-79
2022/01/27 10:51:52;;;;;;;17.20;8.63;;;5.80;99.90;;;;;;5073131;28;20230;-79
2022/01/27 10:54:34;;;;;;;14.90;7.80;;;5.80;99.90;;;;;;5059258;28;20168;-78
2022/01/27 10:57:08;;;;;;;16.70;8.13;;;5.80;99.90;;;;;;5053707;28;20291;-79
2022/01/27 10:59:35;;;;;;;16.17;7.97;;;5.80;99.90;;;;;;5053379;28;20247;-78
2022/01/27 11:02:09;;;;;;;15.87;8.07;;;5.80;99.90;;;;;;5053944;28;20171;-78
2022/01/27 11:04:37;;;;;;;17.43;8.70;;;5.80;99.90;;;;;;5054190;28;20270;-78
2022/01/27 11:07:06;;;;;;;15.67;7.50;;;5.80;99.90;;;;;;5054175;28;20195;-79
2022/01/27 11:09:39;;;;;;;14.30;7.93;;;5.80;99.90;;;;;;5054431;28;20707;-78
2022/01/27 11:12:10;;;;;;;17.73;7.63;;;5.80;99.90;;;;;;5054012;28;20176;-78
2022/01/27 11:14:36;;;;;;;12.57;6.67;;;5.90;99.90;;;;;;5053066;28;20166;-79
2022/01/27 11:17:05;;;;;;;15.90;7.57;;;5.90;99.90;;;;;;5054247;28;20196;-79
2022/01/27 11:27:20;;;;;;;11.87;7.03;;;6.00;99.90;;;;;;5055457;28;20169;-79
2022/01/27 11:30:03;;;;;;;14.50;8.20;;;6.00;99.90;;;;;;5053870;28;20174;-79
2022/01/27 11:32:36;;;;;;;10.73;6.57;;;6.00;99.90;;;;;;5053304;28;20203;-78
2022/01/27 11:35:14;;;;;;;22.73;10.50;;;6.00;99.90;;;;;;5054310;28;20171;-79
2022/01/27 11:37:40;;;;;;;20.67;8.93;;;6.00;99.90;;;;;;5055781;28;20206;-80
2022/01/27 11:40:08;;;;;;;14.00;7.33;;;6.00;99.90;;;;;;5055058;28;20651;-78
2022/01/27 11:42:40;;;;;;;11.40;6.90;;;6.10;99.90;;;;;;5053311;28;20270;-78
2022/01/27 11:45:21;;;;;;;9.50;5.90;;;6.10;99.90;;;;;;5053079;28;20175;-79
2022/01/27 11:47:57;;;;;;;12.67;7.20;;;6.10;99.90;;;;;;5053378;28;20169;-78
2022/01/27 11:50:35;;;;;;;11.90;6.03;;;6.10;99.90;;;;;;5054347;28;20230;-79
2022/01/27 11:53:03;;;;;;;10.27;6.43;;;6.10;99.90;;;;;;5053104;28;20201;-79
2022/01/27 11:55:44;;;;;;;11.93;6.77;;;6.10;99.90;;;;;;5053737;28;20622;-78
2022/01/27 11:58:19;;;;;;;11.10;6.57;;;6.10;99.90;;;;;;5053582;28;20184;-78
2022/01/27 12:01:02;;;;;;;11.53;6.70;;;6.20;99.90;;;;;;5053522;28;20536;-79
2022/01/27 12:03:28;;;;;;;13.67;6.97;;;6.20;99.90;;;;;;5054142;28;20181;-78
2022/01/27 12:06:21;;;;;;;13.23;6.97;;;6.10;99.90;;;;;;5052802;28;20201;-78
2022/01/27 12:08:47;;;;;;;11.73;7.13;;;6.10;99.90;;;;;;5052935;28;20172;-78
2022/01/27 12:11:48;;;;;;;12.57;6.10;;;6.20;99.90;;;;;;5052885;28;20268;-79
2022/01/27 12:14:15;;;;;;;12.27;7.33;;;6.20;99.90;;;;;;5052204;28;20175;-78
2022/01/27 12:16:53;;;;;;;12.77;7.47;;;6.20;99.90;;;;;;5052239;28;20283;-79
2022/01/27 12:19:20;;;;;;;10.77;6.80;;;6.20;99.90;;;;;;5051884;28;20180;-79
2022/01/27 12:21:53;;;;;;;13.13;7.10;;;6.20;99.90;;;;;;5050165;28;20179;-78
2022/01/27 12:24:28;;;;;;;13.00;7.47;;;6.20;99.90;;;;;;5051956;28;20192;-79
2022/01/27 12:26:54;;;;;;;9.33;5.93;;;6.30;99.90;;;;;;5051841;28;20199;-78
2022/01/27 12:29:23;;;;;;;8.17;5.50;;;6.30;99.90;;;;;;5051890;28;20183;-79
2022/01/27 12:31:50;;;;;;;10.03;5.53;;;6.40;99.90;;;;;;5051806;28;20173;-78
2022/01/27 12:34:17;;;;;;;9.80;5.87;;;6.40;99.90;;;;;;5052313;28;20608;-78
2022/01/27 12:37:12;;;;;;;8.53;5.73;;;6.40;99.90;;;;;;5052837;28;20286;-79
2022/01/27 12:39:41;;;;;;;9.97;5.53;;;6.50;99.90;;;;;;5040042;28;20188;-79
2022/01/27 12:42:14;;;;;;;8.40;5.53;;;6.50;99.90;;;;;;5052399;28;20551;-79
2022/01/27 12:44:43;;;;;;;9.27;5.23;;;6.50;99.90;;;;;;5052452;28;20203;-78
2022/01/27 12:47:15;;;;;;;9.27;5.57;;;6.60;99.90;;;;;;5052215;28;20201;-78
2022/01/27 12:49:45;;;;;;;8.40;5.47;;;6.60;99.90;;;;;;5052280;28;20235;-79
2022/01/27 12:52:15;;;;;;;8.97;5.80;;;6.60;99.90;;;;;;5052526;28;20195;-79
2022/01/27 12:54:42;;;;;;;10.30;6.03;;;6.70;99.90;;;;;;5053543;28;20202;-79
2022/01/27 12:57:09;;;;;;;9.53;5.77;;;6.70;99.90;;;;;;5051251;28;20211;-78
2022/01/27 12:59:44;;;;;;;15.63;5.97;;;6.70;99.90;;;;;;5051214;28;20180;-79
2022/01/27 13:02:11;;;;;;;9.67;5.90;;;6.80;99.90;;;;;;5052534;28;20368;-79
2022/01/27 13:04:38;;;;;;;10.07;6.07;;;6.80;99.90;;;;;;5053806;28;20266;-79
2022/01/27 13:07:05;;;;;;;10.03;6.07;;;6.80;99.90;;;;;;5053939;28;20200;-79
2022/01/27 13:09:34;;;;;;;10.63;5.90;;;6.80;99.90;;;;;;5051894;28;20181;-78
2022/01/27 13:12:16;;;;;;;10.43;6.07;;;6.80;99.90;;;;;;5051160;28;20185;-79
2022/01/27 13:14:58;;;;;;;11.87;6.40;;;6.90;99.90;;;;;;5051454;28;20184;-78
2022/01/27 13:17:33;;;;;;;8.87;5.80;;;7.00;99.90;;;;;;5051135;28;20181;-76
2022/01/27 13:20:27;;;;;;;8.30;5.93;;;6.90;99.90;;;;;;5051029;28;20179;-76
2022/01/27 13:23:07;;;;;;;11.00;6.07;;;7.00;99.90;;;;;;5050609;28;20202;-76
2022/01/27 13:25:42;;;;;;;10.83;6.17;;;7.00;99.90;;;;;;5050522;28;20200;-76
2022/01/27 13:28:14;;;;;;;10.00;7.00;;;7.10;99.90;;;;;;5050923;28;20183;-76
2022/01/27 13:30:41;;;;;;;13.07;6.40;;;7.10;99.90;;;;;;5050756;28;20199;-76
2022/01/27 13:33:11;;;;;;;16.10;7.00;;;7.10;99.90;;;;;;5050544;28;20262;-76
2022/01/27 13:35:37;;;;;;;10.57;6.30;;;7.20;99.90;;;;;;5050651;28;20272;-76
2022/01/27 13:38:17;;;;;;;12.93;6.73;;;7.20;99.90;;;;;;5050747;28;20169;-76
2022/01/27 13:43:38;;;;;;;10.53;6.13;;;7.20;99.90;;;;;;5052203;28;20224;-76
2022/01/27 13:46:04;;;;;;;12.00;7.03;;;7.30;99.90;;;;;;5050517;28;20195;-76
2022/01/27 13:48:40;;;;;;;15.67;6.67;;;7.30;99.90;;;;;;5050413;28;20239;-76
2022/01/27 13:51:06;;;;;;;11.73;7.30;;;7.20;99.90;;;;;;5047730;28;20176;-76
2022/01/27 13:53:32;;;;;;;11.47;6.83;;;7.20;99.90;;;;;;5049640;28;20266;-76
2022/01/27 13:56:00;;;;;;;11.53;6.83;;;7.30;99.90;;;;;;5049905;28;20525;-77
2022/01/27 13:58:27;;;;;;;10.20;6.80;;;7.20;99.90;;;;;;5049934;28;20222;-75